createdAt,value
2018-03-06T00:00:13.665Z,41.27
2018-03-06T00:02:44.663Z,39.43
2018-03-06T00:05:15.240Z,42.17
2018-03-06T00:07:45.767Z,39.53
2018-03-06T00:10:16.784Z,41.17
2018-03-06T00:12:47.428Z,40.10
2018-03-06T00:15:17.365Z,40.00
2018-03-06T00:17:47.903Z,39.60
2018-03-06T00:20:19.288Z,37.10
2018-03-06T00:22:50.822Z,38.23
2018-03-06T00:25:21.107Z,40.03
2018-03-06T00:27:51.737Z,40.70
2018-03-06T00:30:22.403Z,33.93
2018-03-06T00:32:52.495Z,40.27
2018-03-06T00:35:22.982Z,37.33
2018-03-06T00:37:53.605Z,39.03
2018-03-06T00:40:24.556Z,38.97
2018-03-06T00:42:55.525Z,38.23
2018-03-06T00:45:26.232Z,39.20
2018-03-06T00:47:56.596Z,35.43
2018-03-06T00:50:26.743Z,42.93
2018-03-06T00:52:57.806Z,41.37
2018-03-06T00:55:28.382Z,42.17
2018-03-06T00:57:59.074Z,37.20
2018-03-06T01:00:30.692Z,41.83
2018-03-06T01:03:01.256Z,38.60
2018-03-06T01:05:32.322Z,41.10
2018-03-06T01:08:02.456Z,49.17
2018-03-06T01:10:33.400Z,47.40
2018-03-06T01:13:03.310Z,45.80
2018-03-06T01:15:33.848Z,44.20
2018-03-06T01:18:05.197Z,44.53
2018-03-06T01:20:36.727Z,46.83
2018-03-06T01:23:07.905Z,53.30
2018-03-06T01:25:39.108Z,48.53
2018-03-06T01:28:09.972Z,46.83
2018-03-06T01:30:41.018Z,45.03
2018-03-06T01:33:12.022Z,40.67
2018-03-06T01:35:42.704Z,40.97
2018-03-06T01:38:13.396Z,40.53
2018-03-06T01:40:43.977Z,38.57
2018-03-06T01:43:14.705Z,41.23
2018-03-06T01:45:45.986Z,45.93
2018-03-06T01:48:16.675Z,40.83
2018-03-06T01:50:47.417Z,41.90
2018-03-06T01:53:17.834Z,46.63
2018-03-06T01:55:48.350Z,42.37
2018-03-06T01:58:19.325Z,45.13
2018-03-06T02:00:50.356Z,45.53
2018-03-06T02:03:21.000Z,39.83
2018-03-06T02:05:51.905Z,41.33
2018-03-06T02:08:23.449Z,44.83
2018-03-06T02:10:54.100Z,51.77
2018-03-06T02:13:24.927Z,59.73
2018-03-06T02:15:55.729Z,56.10
2018-03-06T02:18:26.642Z,52.07
2018-03-06T02:20:57.456Z,50.40
2018-03-06T02:23:27.965Z,42.87
2018-03-06T02:25:58.801Z,41.83
2018-03-06T02:28:29.889Z,50.10
2018-03-06T02:31:00.792Z,59.60
2018-03-06T02:33:31.236Z,65.10
2018-03-06T02:36:01.662Z,67.60
2018-03-06T02:38:32.304Z,68.13
2018-03-06T02:41:03.132Z,75.47
2018-03-06T02:43:34.338Z,78.47
2018-03-06T02:46:10.924Z,68.30
2018-03-06T02:48:42.786Z,72.03
2018-03-06T02:51:13.547Z,73.63
2018-03-06T02:53:44.269Z,89.73
2018-03-06T02:56:14.976Z,115.87
2018-03-06T02:58:45.600Z,112.87
2018-03-06T03:01:16.146Z,113.03
2018-03-06T03:03:47.285Z,122.10
2018-03-06T03:06:17.416Z,116.20
2018-03-06T03:08:47.814Z,149.57
2018-03-06T03:11:18.583Z,105.73
2018-03-06T03:13:49.711Z,96.87
2018-03-06T03:16:20.254Z,103.33
2018-03-06T03:18:50.988Z,130.40
2018-03-06T03:21:22.009Z,169.10
2018-03-06T03:23:52.549Z,193.33
2018-03-06T03:26:23.216Z,208.63
2018-03-06T03:28:54.643Z,84.57
2018-03-06T03:31:24.656Z,118.60
2018-03-06T03:33:55.692Z,63.13
2018-03-06T03:36:26.493Z,256.83
2018-03-06T03:38:57.189Z,126.23
2018-03-06T03:41:28.151Z,68.93
2018-03-06T03:43:58.517Z,80.13
2018-03-06T03:46:29.526Z,125.37
2018-03-06T03:49:01.686Z,207.77
2018-03-06T03:51:32.603Z,270.33
2018-03-06T03:54:03.404Z,150.30
2018-03-06T03:56:33.862Z,231.10
2018-03-06T03:59:04.570Z,128.23
2018-03-06T04:01:35.728Z,181.57
2018-03-06T04:04:06.758Z,259.63
2018-03-06T04:06:37.344Z,146.07
2018-03-06T04:09:08.057Z,124.23
2018-03-06T04:11:38.307Z,102.47
2018-03-06T04:14:09.192Z,121.23
2018-03-06T04:16:39.606Z,126.97
2018-03-06T04:19:10.335Z,149.23
2018-03-06T04:21:41.686Z,116.53
2018-03-06T04:24:12.809Z,96.83
2018-03-06T04:26:44.064Z,102.50
2018-03-06T04:29:14.997Z,109.13
2018-03-06T04:31:45.658Z,110.77
2018-03-06T04:34:16.615Z,85.80
2018-03-06T04:36:47.568Z,98.33
2018-03-06T04:39:18.303Z,92.07
2018-03-06T04:41:49.308Z,91.53
2018-03-06T04:44:19.883Z,87.37
2018-03-06T04:46:50.544Z,81.03
2018-03-06T04:49:21.114Z,82.40
2018-03-06T04:51:52.832Z,83.60
2018-03-06T04:54:23.899Z,83.93
2018-03-06T04:56:54.898Z,83.70
2018-03-06T04:59:25.869Z,87.83
2018-03-06T05:01:56.378Z,81.53
2018-03-06T05:04:27.654Z,78.33
2018-03-06T05:06:58.440Z,71.27
2018-03-06T05:09:29.101Z,76.10
2018-03-06T05:11:59.984Z,84.53
2018-03-06T05:14:31.047Z,73.77
2018-03-06T05:17:01.823Z,72.50
2018-03-06T05:19:32.174Z,69.47
2018-03-06T05:22:02.816Z,79.93
2018-03-06T05:24:33.021Z,83.30
2018-03-06T05:27:03.499Z,78.50
2018-03-06T05:29:34.120Z,84.00
2018-03-06T05:32:04.688Z,71.67
2018-03-06T05:34:35.652Z,88.80
2018-03-06T05:37:06.571Z,83.90
2018-03-06T05:39:37.279Z,88.63
2018-03-06T05:42:08.473Z,79.57
2018-03-06T05:44:39.087Z,78.03
2018-03-06T05:47:09.643Z,94.10
2018-03-06T05:49:40.238Z,92.83
2018-03-06T05:52:10.778Z,86.23
2018-03-06T05:54:41.538Z,73.67
2018-03-06T05:57:12.662Z,88.43
2018-03-06T05:59:43.084Z,84.13
2018-03-06T06:02:13.517Z,88.20
2018-03-06T06:04:44.980Z,86.57
2018-03-06T06:07:16.105Z,93.00
2018-03-06T06:09:46.494Z,99.40
2018-03-06T06:12:16.928Z,105.20
2018-03-06T06:14:47.792Z,77.97
2018-03-06T06:17:19.792Z,83.83
2018-03-06T06:19:50.806Z,98.17
2018-03-06T06:22:21.632Z,106.73
2018-03-06T06:24:52.923Z,94.50
2018-03-06T06:27:23.733Z,117.10
2018-03-06T06:29:54.504Z,104.73
2018-03-06T06:32:25.647Z,93.87
2018-03-06T06:34:56.201Z,90.93
2018-03-06T06:37:27.003Z,100.00
2018-03-06T06:39:58.257Z,105.00
2018-03-06T06:42:28.132Z,109.67
2018-03-06T06:44:58.872Z,104.90
2018-03-06T06:47:29.496Z,99.50
2018-03-06T06:49:59.675Z,102.30
2018-03-06T06:52:30.985Z,92.17
2018-03-06T06:55:02.452Z,96.00
2018-03-06T06:57:33.264Z,76.40
2018-03-06T07:00:04.025Z,83.43
2018-03-06T07:02:34.859Z,89.47
2018-03-06T07:05:05.355Z,79.67
2018-03-06T07:07:36.091Z,97.50
2018-03-06T07:10:06.792Z,70.77
2018-03-06T07:12:37.356Z,84.40
2018-03-06T07:15:08.190Z,83.37
2018-03-06T07:17:38.405Z,74.97
2018-03-06T07:20:08.732Z,94.43
2018-03-06T07:22:38.744Z,93.50
2018-03-06T07:25:09.594Z,82.77
2018-03-06T07:27:40.487Z,72.40
2018-03-06T07:30:10.555Z,77.67
2018-03-06T07:32:41.083Z,72.93
2018-03-06T07:35:10.985Z,74.97
2018-03-06T07:37:41.710Z,68.90
2018-03-06T07:40:12.165Z,54.07
2018-03-06T07:42:43.150Z,67.30
2018-03-06T07:45:13.117Z,63.70
2018-03-06T07:47:43.627Z,67.03
2018-03-06T07:50:13.441Z,69.30
2018-03-06T07:52:44.144Z,60.87
2018-03-06T07:55:14.855Z,54.17
2018-03-06T07:57:46.017Z,56.10
2018-03-06T08:00:16.791Z,62.93
2018-03-06T08:02:47.291Z,56.43
2018-03-06T08:05:17.541Z,67.03
2018-03-06T08:07:49.208Z,71.10
2018-03-06T08:10:20.229Z,62.37
2018-03-06T08:12:51.631Z,79.23
2018-03-06T08:15:22.433Z,58.87
2018-03-06T08:17:53.529Z,57.07
2018-03-06T08:20:24.099Z,57.73
2018-03-06T08:22:55.441Z,62.03
2018-03-06T08:25:26.387Z,50.67
2018-03-06T08:27:57.471Z,59.70
2018-03-06T08:30:28.987Z,58.07
2018-03-06T08:32:59.007Z,54.73
2018-03-06T08:35:29.910Z,63.37
2018-03-06T08:38:01.323Z,53.57
2018-03-06T08:40:32.216Z,44.73
2018-03-06T08:43:02.854Z,44.27
2018-03-06T08:45:33.688Z,48.83
2018-03-06T08:48:04.318Z,43.73
2018-03-06T08:50:34.861Z,52.57
2018-03-06T08:53:05.830Z,51.70
2018-03-06T08:55:36.843Z,53.67
2018-03-06T08:58:07.963Z,58.60
2018-03-06T09:00:38.768Z,53.90
2018-03-06T09:03:09.144Z,59.13
2018-03-06T09:05:39.983Z,54.43
2018-03-06T09:08:11.064Z,51.90
2018-03-06T09:10:41.653Z,41.37
2018-03-06T09:13:11.664Z,43.57
2018-03-06T09:15:42.601Z,40.87
2018-03-06T09:18:13.090Z,36.53
2018-03-06T09:20:43.855Z,33.93
2018-03-06T09:23:14.778Z,36.53
2018-03-06T09:25:45.896Z,36.47
2018-03-06T09:28:16.560Z,37.87
2018-03-06T09:30:47.508Z,33.80
2018-03-06T09:33:18.153Z,44.00
2018-03-06T09:35:48.585Z,48.27
2018-03-06T09:38:19.898Z,52.70
2018-03-06T09:40:50.558Z,51.43
2018-03-06T09:43:21.000Z,51.40
2018-03-06T09:45:51.614Z,47.80
2018-03-06T09:48:22.623Z,46.37
2018-03-06T09:50:52.568Z,42.97
2018-03-06T09:53:23.078Z,56.27
2018-03-06T09:55:54.648Z,47.00
2018-03-06T09:58:25.291Z,49.93
2018-03-06T10:00:56.227Z,50.10
2018-03-06T10:03:27.137Z,49.63
2018-03-06T10:05:58.320Z,40.60
2018-03-06T10:08:28.906Z,51.07
2018-03-06T10:10:59.737Z,51.53
2018-03-06T10:13:30.492Z,37.07
2018-03-06T10:16:01.153Z,32.17
2018-03-06T10:18:31.755Z,42.10
2018-03-06T10:21:02.282Z,42.27
2018-03-06T10:23:33.653Z,40.27
2018-03-06T10:26:04.533Z,40.90
2018-03-06T10:28:35.298Z,36.70
2018-03-06T10:31:06.270Z,37.50
2018-03-06T10:33:37.424Z,39.23
2018-03-06T10:36:07.734Z,43.23
2018-03-06T10:38:38.295Z,48.43
2018-03-06T10:41:08.811Z,39.00
2018-03-06T10:43:39.656Z,42.40
2018-03-06T10:46:10.566Z,42.70
2018-03-06T10:48:41.088Z,40.13
2018-03-06T10:51:11.608Z,48.10
2018-03-06T10:53:42.657Z,45.50
2018-03-06T10:56:13.684Z,39.23
2018-03-06T10:58:44.313Z,35.97
2018-03-06T11:01:31.019Z,35.93
2018-03-06T11:04:02.662Z,34.47
2018-03-06T11:06:33.098Z,32.80
2018-03-06T11:09:03.558Z,29.57
2018-03-06T11:11:34.196Z,25.80
2018-03-06T11:14:04.805Z,25.53
2018-03-06T11:16:35.908Z,28.83
2018-03-06T11:19:06.522Z,30.23
2018-03-06T11:21:37.428Z,27.47
2018-03-06T11:24:08.195Z,30.37
2018-03-06T11:26:38.603Z,24.53
2018-03-06T11:29:09.227Z,29.37
2018-03-06T11:31:39.952Z,25.17
2018-03-06T11:34:10.973Z,26.83
2018-03-06T11:36:41.662Z,24.23
2018-03-06T11:39:12.602Z,28.00
2018-03-06T11:41:43.400Z,26.57
2018-03-06T11:44:14.513Z,30.93
2018-03-06T11:46:45.140Z,31.13
2018-03-06T11:49:16.014Z,32.00
2018-03-06T11:51:47.305Z,34.50
2018-03-06T11:54:18.145Z,29.27
2018-03-06T11:56:48.523Z,30.53
2018-03-06T11:59:18.959Z,23.40
2018-03-06T12:01:49.499Z,26.10
2018-03-06T12:04:20.214Z,24.97
2018-03-06T12:06:50.768Z,28.00
2018-03-06T12:09:21.177Z,22.13
2018-03-06T12:11:51.842Z,24.53
2018-03-06T12:14:22.226Z,26.93
2018-03-06T12:16:52.761Z,25.07
2018-03-06T12:19:23.651Z,30.43
2018-03-06T12:21:54.440Z,30.43
2018-03-06T12:24:24.855Z,26.10
2018-03-06T12:26:55.601Z,27.30
2018-03-06T12:29:26.304Z,31.53
2018-03-06T12:31:56.592Z,37.27
2018-03-06T12:34:27.731Z,30.53
2018-03-06T12:36:59.002Z,33.43
2018-03-06T12:39:29.210Z,29.50
2018-03-06T12:42:00.233Z,30.73
2018-03-06T12:44:30.952Z,34.57
2018-03-06T12:47:02.122Z,35.53
2018-03-06T12:49:32.614Z,36.07
2018-03-06T12:52:03.590Z,29.13
2018-03-06T12:54:34.447Z,34.43
2018-03-06T12:57:05.446Z,30.53
2018-03-06T12:59:35.732Z,36.73
2018-03-06T13:02:06.893Z,32.67
2018-03-06T13:04:37.528Z,38.73
2018-03-06T13:07:08.895Z,36.10
2018-03-06T13:09:39.771Z,38.93
2018-03-06T13:12:09.625Z,42.47
2018-03-06T13:14:40.148Z,40.40
2018-03-06T13:17:11.382Z,40.40
2018-03-06T13:19:41.526Z,40.10
2018-03-06T13:22:12.358Z,40.83
2018-03-06T13:24:42.898Z,39.03
2018-03-06T13:27:13.621Z,39.90
2018-03-06T13:29:44.435Z,45.67
2018-03-06T13:32:15.004Z,42.60
2018-03-06T13:34:45.789Z,35.97
2018-03-06T13:37:16.591Z,42.97
2018-03-06T13:39:47.169Z,36.40
2018-03-06T13:42:17.796Z,37.23
2018-03-06T13:44:48.339Z,33.83
2018-03-06T13:47:19.159Z,38.17
2018-03-06T13:49:49.405Z,40.30
2018-03-06T13:52:20.011Z,36.87
2018-03-06T13:54:50.473Z,41.27
2018-03-06T13:57:20.916Z,39.07
2018-03-06T13:59:52.143Z,40.60
2018-03-06T14:02:22.663Z,36.20
2018-03-06T14:04:52.498Z,38.27
2018-03-06T14:07:22.927Z,36.23
2018-03-06T14:09:53.623Z,39.73
2018-03-06T14:12:24.456Z,37.67
2018-03-06T14:14:55.789Z,37.67
2018-03-06T14:17:26.776Z,33.80
2018-03-06T14:19:57.464Z,36.83
2018-03-06T14:22:28.131Z,35.57
2018-03-06T14:24:58.462Z,35.43
2018-03-06T14:27:29.388Z,40.73
2018-03-06T14:30:00.350Z,42.03
2018-03-06T14:32:31.180Z,41.50
2018-03-06T14:35:02.016Z,38.10
2018-03-06T14:37:33.185Z,35.07
2018-03-06T14:40:04.153Z,34.90
2018-03-06T14:42:35.085Z,41.03
2018-03-06T14:45:06.443Z,41.87
2018-03-06T14:47:36.413Z,39.13
2018-03-06T14:50:07.213Z,38.63
2018-03-06T14:52:38.346Z,43.43
2018-03-06T14:55:08.973Z,41.83
2018-03-06T14:57:39.966Z,42.40
2018-03-06T15:00:10.071Z,41.43
2018-03-06T15:02:40.296Z,48.30
2018-03-06T15:05:10.911Z,45.60
2018-03-06T15:07:41.437Z,42.40
2018-03-06T15:10:12.092Z,45.33
2018-03-06T15:12:42.684Z,44.97
2018-03-06T15:15:13.969Z,41.60
2018-03-06T15:17:44.361Z,45.77
2018-03-06T15:20:14.772Z,44.73
2018-03-06T15:22:45.416Z,43.70
2018-03-06T15:25:16.452Z,43.40
2018-03-06T15:27:47.086Z,48.50
2018-03-06T15:30:18.070Z,41.10
2018-03-06T15:32:48.817Z,41.17
2018-03-06T15:35:19.330Z,43.73
2018-03-06T15:37:49.756Z,44.20
2018-03-06T15:40:20.380Z,48.33
2018-03-06T15:42:51.224Z,44.83
2018-03-06T15:45:21.675Z,50.60
2018-03-06T15:47:52.292Z,48.83
2018-03-06T15:50:23.232Z,47.97
2018-03-06T15:52:53.631Z,41.03
2018-03-06T15:55:24.286Z,42.67
2018-03-06T15:57:55.630Z,44.97
2018-03-06T16:00:26.378Z,46.93
2018-03-06T16:02:57.397Z,43.10
2018-03-06T16:05:28.031Z,47.60
2018-03-06T16:07:58.573Z,41.33
2018-03-06T16:10:29.494Z,38.40
2018-03-06T16:13:00.794Z,41.73
2018-03-06T16:15:31.364Z,42.97
2018-03-06T16:18:01.591Z,45.63
2018-03-06T16:20:32.142Z,48.90
2018-03-06T16:23:02.765Z,48.57
2018-03-06T16:25:33.611Z,41.03
2018-03-06T16:28:04.307Z,49.13
2018-03-06T16:30:35.338Z,42.77
2018-03-06T16:33:05.800Z,42.20
2018-03-06T16:35:36.652Z,46.90
2018-03-06T16:38:07.264Z,40.20
2018-03-06T16:40:37.779Z,41.73
2018-03-06T16:43:08.468Z,42.97
2018-03-06T16:45:39.137Z,41.83
2018-03-06T16:48:09.900Z,46.83
2018-03-06T16:50:40.441Z,36.63
2018-03-06T16:53:11.675Z,45.30
2018-03-06T16:55:42.421Z,44.40
2018-03-06T16:58:13.046Z,52.77
2018-03-06T17:00:44.161Z,44.50
2018-03-06T17:03:15.535Z,48.53
2018-03-06T17:05:46.267Z,50.87
2018-03-06T17:08:16.598Z,54.73
2018-03-06T17:10:47.957Z,55.63
2018-03-06T17:13:18.380Z,56.70
2018-03-06T17:15:49.713Z,68.80
2018-03-06T17:18:20.489Z,64.70
2018-03-06T17:20:51.319Z,69.63
2018-03-06T17:23:22.229Z,66.03
2018-03-06T17:25:52.456Z,72.93
2018-03-06T17:28:23.340Z,63.97
2018-03-06T17:30:54.032Z,62.47
2018-03-06T17:33:24.668Z,57.07
2018-03-06T17:35:54.983Z,55.63
2018-03-06T17:38:25.913Z,53.07
2018-03-06T17:40:56.440Z,55.73
2018-03-06T17:43:26.864Z,50.53
2018-03-06T17:45:57.510Z,58.13
2018-03-06T17:48:28.245Z,50.67
2018-03-06T17:50:58.974Z,44.87
2018-03-06T17:53:30.000Z,52.47
2018-03-06T17:56:00.551Z,47.27
2018-03-06T17:58:31.401Z,54.77
2018-03-06T18:01:01.797Z,55.97
2018-03-06T18:03:32.334Z,60.17
2018-03-06T18:06:02.460Z,47.23
2018-03-06T18:08:32.990Z,52.37
2018-03-06T18:11:03.000Z,56.23
2018-03-06T18:13:33.440Z,48.47
2018-03-06T18:16:04.409Z,47.30
2018-03-06T18:18:35.250Z,43.63
2018-03-06T18:21:05.991Z,46.67
2018-03-06T18:23:37.163Z,49.13
2018-03-06T18:26:07.703Z,48.23
2018-03-06T18:28:38.572Z,54.27
2018-03-06T18:31:09.353Z,58.87
2018-03-06T18:33:39.306Z,58.57
2018-03-06T18:36:09.318Z,55.50
2018-03-06T18:38:40.402Z,69.07
2018-03-06T18:41:11.567Z,63.83
2018-03-06T18:43:42.664Z,55.07
2018-03-06T18:46:14.162Z,59.77
2018-03-06T18:48:45.800Z,49.40
2018-03-06T18:51:16.851Z,50.40
2018-03-06T18:53:47.850Z,48.77
2018-03-06T18:56:18.865Z,46.20
2018-03-06T18:58:49.958Z,43.07
2018-03-06T19:01:41.815Z,47.67
2018-03-06T19:04:24.546Z,44.67
2018-03-06T19:07:07.855Z,49.63
2018-03-06T19:09:39.264Z,45.53
2018-03-06T19:12:10.247Z,44.73
2018-03-06T19:14:41.188Z,46.17
2018-03-06T19:17:12.992Z,43.10
2018-03-06T19:19:44.311Z,46.50
2018-03-06T19:22:15.835Z,46.87
2018-03-06T19:24:46.843Z,48.53
2018-03-06T19:27:18.958Z,50.03
2018-03-06T19:29:50.399Z,47.27
2018-03-06T19:32:22.360Z,51.73
2018-03-06T19:34:53.545Z,55.60
2018-03-06T19:37:24.388Z,52.17
2018-03-06T19:39:56.055Z,54.23
2018-03-06T19:42:26.852Z,52.73
2018-03-06T19:44:58.145Z,45.17
2018-03-06T19:47:29.211Z,48.27
2018-03-06T19:50:00.572Z,49.60
2018-03-06T19:52:32.105Z,53.57
2018-03-06T19:55:03.162Z,49.17
2018-03-06T19:57:34.582Z,49.13
2018-03-06T20:00:05.977Z,59.43
2018-03-06T20:02:37.244Z,53.07
2018-03-06T20:05:08.573Z,55.63
2018-03-06T20:07:39.474Z,59.73
2018-03-06T20:10:10.507Z,57.53
2018-03-06T20:12:41.500Z,58.97
2018-03-06T20:15:18.216Z,55.40
2018-03-06T20:17:49.013Z,55.20
2018-03-06T20:20:19.589Z,50.77
2018-03-06T20:22:50.314Z,52.13
2018-03-06T20:25:26.152Z,56.60
2018-03-06T20:27:56.910Z,55.00
2018-03-06T20:30:33.340Z,51.67
2018-03-06T20:33:09.623Z,67.13
2018-03-06T20:35:40.166Z,72.27
2018-03-06T20:38:16.726Z,67.83
2018-03-06T20:40:47.261Z,76.73
2018-03-06T20:43:18.336Z,77.23
2018-03-06T20:45:54.367Z,99.13
2018-03-06T20:48:24.750Z,88.37
2018-03-06T20:50:55.619Z,90.33
2018-03-06T20:53:32.122Z,82.80
2018-03-06T20:56:03.520Z,87.33
2018-03-06T20:58:34.247Z,76.17
2018-03-06T21:01:04.906Z,81.70
2018-03-06T21:03:35.643Z,79.37
2018-03-06T21:06:06.143Z,76.67
2018-03-06T21:08:36.597Z,73.80
2018-03-06T21:11:07.654Z,76.43
2018-03-06T21:13:38.173Z,72.07
2018-03-06T21:16:08.964Z,72.30
2018-03-06T21:18:40.338Z,74.60
2018-03-06T21:21:11.357Z,73.00
2018-03-06T21:23:42.013Z,70.30
2018-03-06T21:26:11.727Z,78.57
2018-03-06T21:28:42.058Z,74.20
2018-03-06T21:31:12.544Z,73.93
2018-03-06T21:33:42.900Z,72.40
2018-03-06T21:36:13.829Z,69.97
2018-03-06T21:38:44.253Z,66.10
2018-03-06T21:41:15.107Z,73.77
2018-03-06T21:43:45.535Z,69.83
2018-03-06T21:46:16.275Z,70.47
2018-03-06T21:48:47.660Z,65.13
2018-03-06T21:51:18.365Z,63.77
2018-03-06T21:53:49.133Z,65.20
2018-03-06T21:56:19.830Z,68.90
2018-03-06T21:58:50.475Z,73.93
2018-03-06T22:01:21.682Z,80.03
2018-03-06T22:03:52.139Z,80.07
2018-03-06T22:06:22.852Z,83.77
2018-03-06T22:08:53.353Z,81.73
2018-03-06T22:11:23.791Z,83.03
2018-03-06T22:13:53.740Z,73.10
2018-03-06T22:16:24.192Z,75.53
2018-03-06T22:18:55.021Z,79.63
2018-03-06T22:21:25.730Z,66.13
2018-03-06T22:23:56.237Z,70.77
2018-03-06T22:26:26.807Z,75.70
2018-03-06T22:28:57.261Z,80.20
2018-03-06T22:31:27.923Z,74.47
2018-03-06T22:33:59.365Z,80.50
2018-03-06T22:36:29.211Z,77.63
2018-03-06T22:38:59.495Z,70.77
2018-03-06T22:41:29.867Z,76.57
2018-03-06T22:44:00.299Z,70.43
2018-03-06T22:46:30.280Z,67.90
2018-03-06T22:49:00.190Z,67.27
2018-03-06T22:51:30.036Z,61.87
2018-03-06T22:53:59.848Z,69.43
2018-03-06T22:56:30.302Z,65.90
2018-03-06T22:59:00.599Z,60.47
2018-03-06T23:01:30.572Z,66.57
2018-03-06T23:04:00.328Z,61.43
2018-03-06T23:06:30.446Z,59.13
2018-03-06T23:09:00.470Z,59.67
2018-03-06T23:11:30.583Z,58.23
2018-03-06T23:14:00.398Z,64.93
2018-03-06T23:16:30.212Z,63.80
2018-03-06T23:19:00.706Z,61.23
2018-03-06T23:21:31.109Z,62.93
2018-03-06T23:24:01.489Z,62.63
2018-03-06T23:26:31.404Z,55.93
2018-03-06T23:29:01.878Z,56.67
2018-03-06T23:31:32.944Z,55.07
2018-03-06T23:34:03.909Z,55.73
2018-03-06T23:36:33.882Z,56.07
2018-03-06T23:39:04.564Z,62.00
2018-03-06T23:41:34.387Z,65.57
2018-03-06T23:44:04.393Z,115.47
2018-03-06T23:46:34.517Z,113.30
2018-03-06T23:49:04.938Z,95.67
2018-03-06T23:51:35.827Z,101.90
2018-03-06T23:54:05.794Z,168.10
2018-03-06T23:56:36.532Z,103.17
2018-03-06T23:59:06.438Z,106.80
